sensor_id;sensor_type;location;lat;lon;timestamp;pressure;altitude;pressure_sealevel;temperature
28803;BMP280;15949;55.656;37.422;2023-07-08T00:04:14;99340.06;;;17.08
28803;BMP280;15949;55.656;37.422;2023-07-08T00:09:19;99344.19;;;17.09
28803;BMP280;15949;55.656;37.422;2023-07-08T00:14:25;99354.72;;;17.09
28803;BMP280;15949;55.656;37.422;2023-07-08T00:19:31;99360.00;;;17.09
28803;BMP280;15949;55.656;37.422;2023-07-08T00:24:36;99360.75;;;17.09
28803;BMP280;15949;55.656;37.422;2023-07-08T00:29:42;99354.34;;;16.99
28803;BMP280;15949;55.656;37.422;2023-07-08T00:34:49;99361.91;;;16.97
28803;BMP280;15949;55.656;37.422;2023-07-08T00:39:54;99363.03;;;17.00
28803;BMP280;15949;55.656;37.422;2023-07-08T00:45:00;99363.41;;;16.98
28803;BMP280;15949;55.656;37.422;2023-07-08T00:50:08;99367.94;;;17.02
28803;BMP280;15949;55.656;37.422;2023-07-08T00:55:16;99378.09;;;17.03
28803;BMP280;15949;55.656;37.422;2023-07-08T01:00:22;99365.66;;;17.00
28803;BMP280;15949;55.656;37.422;2023-07-08T01:05:29;99363.78;;;17.00
28803;BMP280;15949;55.656;37.422;2023-07-08T01:10:43;99361.53;;;16.99
28803;BMP280;15949;55.656;37.422;2023-07-08T01:15:49;99375.44;;;17.03
28803;BMP280;15949;55.656;37.422;2023-07-08T01:20:55;99363.03;;;17.07
28803;BMP280;15949;55.656;37.422;2023-07-08T01:26:01;99379.56;;;17.11
28803;BMP280;15949;55.656;37.422;2023-07-08T01:31:07;99382.22;;;17.08
28803;BMP280;15949;55.656;37.422;2023-07-08T01:36:12;99384.84;;;17.08
28803;BMP280;15949;55.656;37.422;2023-07-08T01:41:18;99384.84;;;17.04
28803;BMP280;15949;55.656;37.422;2023-07-08T01:46:25;99374.31;;;17.00
28803;BMP280;15949;55.656;37.422;2023-07-08T01:51:32;99374.69;;;17.06
28803;BMP280;15949;55.656;37.422;2023-07-08T01:56:37;99372.06;;;17.06
28803;BMP280;15949;55.656;37.422;2023-07-08T02:01:43;99371.31;;;17.06
28803;BMP280;15949;55.656;37.422;2023-07-08T02:06:53;99372.06;;;17.06
28803;BMP280;15949;55.656;37.422;2023-07-08T02:11:59;99375.06;;;17.05
28803;BMP280;15949;55.656;37.422;2023-07-08T02:17:05;99369.81;;;17.01
28803;BMP280;15949;55.656;37.422;2023-07-08T02:22:11;99363.03;;;16.93
28803;BMP280;15949;55.656;37.422;2023-07-08T02:27:16;99351.75;;;16.89
28803;BMP280;15949;55.656;37.422;2023-07-08T02:32:22;99352.50;;;16.86
28803;BMP280;15949;55.656;37.422;2023-07-08T02:37:27;99363.41;;;16.88
28803;BMP280;15949;55.656;37.422;2023-07-08T02:42:33;99377.69;;;16.87
28803;BMP280;15949;55.656;37.422;2023-07-08T02:47:39;99373.19;;;16.94
28803;BMP280;15949;55.656;37.422;2023-07-08T02:52:44;99365.28;;;16.98
28803;BMP280;15949;55.656;37.422;2023-07-08T02:57:50;99359.28;;;17.01
28803;BMP280;15949;55.656;37.422;2023-07-08T03:02:55;99349.09;;;17.03
28803;BMP280;15949;55.656;37.422;2023-07-08T03:08:01;99336.69;;;16.96
28803;BMP280;15949;55.656;37.422;2023-07-08T03:13:07;99344.22;;;16.98
28803;BMP280;15949;55.656;37.422;2023-07-08T03:18:12;99354.72;;;17.16
28803;BMP280;15949;55.656;37.422;2023-07-08T03:23:18;99348.31;;;17.20
28803;BMP280;15949;55.656;37.422;2023-07-08T03:28:24;99353.94;;;17.29
28803;BMP280;15949;55.656;37.422;2023-07-08T03:33:30;99346.41;;;17.35
28803;BMP280;15949;55.656;37.422;2023-07-08T03:38:35;99355.09;;;17.32
28803;BMP280;15949;55.656;37.422;2023-07-08T03:43:41;99361.81;;;17.43
28803;BMP280;15949;55.656;37.422;2023-07-08T03:48:47;99359.91;;;17.58
28803;BMP280;15949;55.656;37.422;2023-07-08T03:53:53;99346.78;;;17.40
28803;BMP280;15949;55.656;37.422;2023-07-08T03:58:58;99342.66;;;17.36
28803;BMP280;15949;55.656;37.422;2023-07-08T04:04:04;99343.00;;;17.38
28803;BMP280;15949;55.656;37.422;2023-07-08T04:09:10;99358.06;;;17.41
28803;BMP280;15949;55.656;37.422;2023-07-08T04:14:15;99356.91;;;17.52
28803;BMP280;15949;55.656;37.422;2023-07-08T04:19:21;99356.84;;;17.63
28803;BMP280;15949;55.656;37.422;2023-07-08T04:24:28;99371.13;;;17.80
28803;BMP280;15949;55.656;37.422;2023-07-08T04:29:33;99373.72;;;17.90
28803;BMP280;15949;55.656;37.422;2023-07-08T04:34:40;99382.31;;;18.01
28803;BMP280;15949;55.656;37.422;2023-07-08T04:39:46;99392.94;;;17.91
28803;BMP280;15949;55.656;37.422;2023-07-08T04:44:51;99372.31;;;17.64
28803;BMP280;15949;55.656;37.422;2023-07-08T04:49:58;99351.59;;;17.66
28803;BMP280;15949;55.656;37.422;2023-07-08T04:55:04;99349.69;;;17.63
28803;BMP280;15949;55.656;37.422;2023-07-08T05:00:15;99368.97;;;17.50
28803;BMP280;15949;55.656;37.422;2023-07-08T05:05:22;99371.66;;;17.32
28803;BMP280;15949;55.656;37.422;2023-07-08T05:10:28;99386.31;;;17.40
28803;BMP280;15949;55.656;37.422;2023-07-08T05:15:33;99394.59;;;17.35
28803;BMP280;15949;55.656;37.422;2023-07-08T05:20:40;99396.09;;;17.36
28803;BMP280;15949;55.656;37.422;2023-07-08T05:25:46;99388.91;;;17.51
28803;BMP280;15949;55.656;37.422;2023-07-08T05:30:55;99386.63;;;17.63
28803;BMP280;15949;55.656;37.422;2023-07-08T05:36:01;99381.63;;;17.90
28803;BMP280;15949;55.656;37.422;2023-07-08T05:41:06;99384.97;;;17.98
28803;BMP280;15949;55.656;37.422;2023-07-08T05:46:12;99378.22;;;17.93
28803;BMP280;15949;55.656;37.422;2023-07-08T05:51:18;99369.94;;;17.91
28803;BMP280;15949;55.656;37.422;2023-07-08T05:56:23;99357.94;;;17.80
28803;BMP280;15949;55.656;37.422;2023-07-08T06:01:29;99369.22;;;17.87
28803;BMP280;15949;55.656;37.422;2023-07-08T06:06:35;99361.22;;;17.98
28803;BMP280;15949;55.656;37.422;2023-07-08T06:11:41;99352.47;;;18.15
28803;BMP280;15949;55.656;37.422;2023-07-08T06:16:46;99367.06;;;18.30
28803;BMP280;15949;55.656;37.422;2023-07-08T06:21:52;99364.19;;;18.07
28803;BMP280;15949;55.656;37.422;2023-07-08T06:26:57;99357.13;;;17.90
28803;BMP280;15949;55.656;37.422;2023-07-08T06:32:03;99337.53;;;17.94
28803;BMP280;15949;55.656;37.422;2023-07-08T06:37:09;99351.94;;;17.75
28803;BMP280;15949;55.656;37.422;2023-07-08T06:42:15;99347.38;;;17.76
28803;BMP280;15949;55.656;37.422;2023-07-08T06:47:21;99341.75;;;17.77
28803;BMP280;15949;55.656;37.422;2023-07-08T06:52:27;99346.63;;;17.79
28803;BMP280;15949;55.656;37.422;2023-07-08T06:57:39;99345.88;;;17.78
28803;BMP280;15949;55.656;37.422;2023-07-08T07:02:44;99355.69;;;17.74
28803;BMP280;15949;55.656;37.422;2023-07-08T07:07:50;99362.84;;;17.74
28803;BMP280;15949;55.656;37.422;2023-07-08T07:12:57;99358.72;;;17.69
28803;BMP280;15949;55.656;37.422;2023-07-08T07:18:03;99350.41;;;17.82
28803;BMP280;15949;55.656;37.422;2023-07-08T07:23:09;99348.38;;;18.07
28803;BMP280;15949;55.656;37.422;2023-07-08T07:28:16;99347.13;;;18.25
28803;BMP280;15949;55.656;37.422;2023-07-08T07:33:22;99335.59;;;18.57
28803;BMP280;15949;55.656;37.422;2023-07-08T07:38:27;99342.56;;;18.77
28803;BMP280;15949;55.656;37.422;2023-07-08T07:43:34;99347.25;;;18.63
28803;BMP280;15949;55.656;37.422;2023-07-08T07:48:39;99355.16;;;18.59
28803;BMP280;15949;55.656;37.422;2023-07-08T07:53:45;99358.25;;;18.54
28803;BMP280;15949;55.656;37.422;2023-07-08T07:58:51;99367.34;;;18.46
28803;BMP280;15949;55.656;37.422;2023-07-08T08:03:56;99377.88;;;18.53
28803;BMP280;15949;55.656;37.422;2023-07-08T08:09:03;99373.06;;;18.41
28803;BMP280;15949;55.656;37.422;2023-07-08T08:14:09;99366.59;;;18.42
28803;BMP280;15949;55.656;37.422;2023-07-08T08:19:14;99383.59;;;18.37
28803;BMP280;15949;55.656;37.422;2023-07-08T08:24:20;99383.59;;;18.37
28803;BMP280;15949;55.656;37.422;2023-07-08T08:29:25;99387.66;;;18.56
28803;BMP280;15949;55.656;37.422;2023-07-08T08:34:31;99387.84;;;18.79
28803;BMP280;15949;55.656;37.422;2023-07-08T08:39:37;99382.03;;;18.95
28803;BMP280;15949;55.656;37.422;2023-07-08T08:44:42;99381.72;;;19.26
28803;BMP280;15949;55.656;37.422;2023-07-08T08:49:56;99379.41;;;19.66
28803;BMP280;15949;55.656;37.422;2023-07-08T08:55:02;99395.06;;;20.10
28803;BMP280;15949;55.656;37.422;2023-07-08T09:00:10;99379.78;;;20.21
28803;BMP280;15949;55.656;37.422;2023-07-08T09:05:17;99379.78;;;20.21
28803;BMP280;15949;55.656;37.422;2023-07-08T09:10:39;99372.97;;;20.47
28803;BMP280;15949;55.656;37.422;2023-07-08T09:15:49;99381.38;;;20.65
28803;BMP280;15949;55.656;37.422;2023-07-08T09:20:58;99366.34;;;20.81
28803;BMP280;15949;55.656;37.422;2023-07-08T09:26:11;99372.16;;;20.92
28803;BMP280;15949;55.656;37.422;2023-07-08T09:31:23;99375.09;;;20.98
28803;BMP280;15949;55.656;37.422;2023-07-08T09:36:29;99369.50;;;20.73
28803;BMP280;15949;55.656;37.422;2023-07-08T09:41:36;99368.16;;;20.61
28803;BMP280;15949;55.656;37.422;2023-07-08T09:46:42;99376.34;;;20.47
28803;BMP280;15949;55.656;37.422;2023-07-08T09:51:48;99388.44;;;20.71
28803;BMP280;15949;55.656;37.422;2023-07-08T09:57:03;99374.13;;;21.31
28803;BMP280;15949;55.656;37.422;2023-07-08T10:02:32;99355.66;;;21.95
28803;BMP280;15949;55.656;37.422;2023-07-08T10:07:38;99373.75;;;22.33
28803;BMP280;15949;55.656;37.422;2023-07-08T10:13:17;99357.88;;;22.61
28803;BMP280;15949;55.656;37.422;2023-07-08T10:18:26;99371.50;;;23.05
28803;BMP280;15949;55.656;37.422;2023-07-08T10:23:58;99369.59;;;22.76
28803;BMP280;15949;55.656;37.422;2023-07-08T10:45:15;99347.69;;;22.72
28803;BMP280;15949;55.656;37.422;2023-07-08T11:01:08;99346.00;;;23.32
28803;BMP280;15949;55.656;37.422;2023-07-08T11:06:20;99360.94;;;22.89
28803;BMP280;15949;55.656;37.422;2023-07-08T11:12:17;99367.16;;;23.11
28803;BMP280;15949;55.656;37.422;2023-07-08T11:17:46;99361.56;;;22.64
28803;BMP280;15949;55.656;37.422;2023-07-08T11:23:08;99364.44;;;22.41
28803;BMP280;15949;55.656;37.422;2023-07-08T11:28:19;99363.75;;;22.69
28803;BMP280;15949;55.656;37.422;2023-07-08T11:33:26;99360.25;;;22.84
28803;BMP280;15949;55.656;37.422;2023-07-08T11:38:33;99359.06;;;23.02
28803;BMP280;15949;55.656;37.422;2023-07-08T11:43:59;99353.38;;;23.41
28803;BMP280;15949;55.656;37.422;2023-07-08T11:49:13;99368.66;;;23.12
28803;BMP280;15949;55.656;37.422;2023-07-08T11:54:26;99367.91;;;22.54
28803;BMP280;15949;55.656;37.422;2023-07-08T11:59:37;99365.47;;;22.15
28803;BMP280;15949;55.656;37.422;2023-07-08T12:05:11;99359.72;;;21.84
28803;BMP280;15949;55.656;37.422;2023-07-08T12:15:32;99367.38;;;21.98
28803;BMP280;15949;55.656;37.422;2023-07-08T12:20:40;99354.09;;;21.98
28803;BMP280;15949;55.656;37.422;2023-07-08T12:25:46;99345.78;;;23.14
28803;BMP280;15949;55.656;37.422;2023-07-08T12:30:52;99346.34;;;24.19
28803;BMP280;15949;55.656;37.422;2023-07-08T12:36:01;99341.94;;;24.80
28803;BMP280;15949;55.656;37.422;2023-07-08T12:41:12;99345.97;;;25.16
28803;BMP280;15949;55.656;37.422;2023-07-08T12:46:20;99340.03;;;25.12
28803;BMP280;15949;55.656;37.422;2023-07-08T12:51:27;99339.13;;;25.06
28803;BMP280;15949;55.656;37.422;2023-07-08T12:56:34;99340.19;;;25.57
28803;BMP280;15949;55.656;37.422;2023-07-08T13:01:40;99347.13;;;25.06
28803;BMP280;15949;55.656;37.422;2023-07-08T13:06:47;99350.69;;;24.25
28803;BMP280;15949;55.656;37.422;2023-07-08T13:11:54;99348.53;;;24.33
28803;BMP280;15949;55.656;37.422;2023-07-08T13:17:01;99345.91;;;24.20
28803;BMP280;15949;55.656;37.422;2023-07-08T13:22:12;99341.38;;;24.64
28803;BMP280;15949;55.656;37.422;2023-07-08T13:27:22;99336.00;;;24.76
28803;BMP280;15949;55.656;37.422;2023-07-08T13:32:30;99339.03;;;24.88
28803;BMP280;15949;55.656;37.422;2023-07-08T13:37:36;99330.00;;;24.29
28803;BMP280;15949;55.656;37.422;2023-07-08T13:42:49;99335.47;;;23.79
28803;BMP280;15949;55.656;37.422;2023-07-08T13:48:21;99328.16;;;23.58
28803;BMP280;15949;55.656;37.422;2023-07-08T13:58:48;99335.16;;;23.39
28803;BMP280;15949;55.656;37.422;2023-07-08T14:03:55;99331.34;;;23.28
28803;BMP280;15949;55.656;37.422;2023-07-08T14:09:16;99322.78;;;23.20
28803;BMP280;15949;55.656;37.422;2023-07-08T14:14:22;99313.94;;;23.86
28803;BMP280;15949;55.656;37.422;2023-07-08T14:19:30;99307.16;;;23.72
28803;BMP280;15949;55.656;37.422;2023-07-08T14:24:37;99301.00;;;23.25
28803;BMP280;15949;55.656;37.422;2023-07-08T14:29:45;99299.47;;;23.62
28803;BMP280;15949;55.656;37.422;2023-07-08T14:34:51;99294.25;;;23.83
28803;BMP280;15949;55.656;37.422;2023-07-08T14:39:58;99293.66;;;23.54
28803;BMP280;15949;55.656;37.422;2023-07-08T14:45:04;99280.69;;;23.19
28803;BMP280;15949;55.656;37.422;2023-07-08T14:50:13;99280.69;;;23.19
28803;BMP280;15949;55.656;37.422;2023-07-08T14:55:19;99271.22;;;23.18
28803;BMP280;15949;55.656;37.422;2023-07-08T15:00:25;99265.69;;;23.37
28803;BMP280;15949;55.656;37.422;2023-07-08T15:05:30;99262.81;;;23.78
28803;BMP280;15949;55.656;37.422;2023-07-08T15:10:36;99262.44;;;24.23
28803;BMP280;15949;55.656;37.422;2023-07-08T15:15:42;99270.19;;;23.74
28803;BMP280;15949;55.656;37.422;2023-07-08T15:20:48;99272.16;;;23.36
28803;BMP280;15949;55.656;37.422;2023-07-08T15:25:54;99271.25;;;24.33
28803;BMP280;15949;55.656;37.422;2023-07-08T15:31:01;99270.00;;;24.68
28803;BMP280;15949;55.656;37.422;2023-07-08T15:36:10;99267.56;;;24.82
28803;BMP280;15949;55.656;37.422;2023-07-08T15:41:21;99272.25;;;27.75
28803;BMP280;15949;55.656;37.422;2023-07-08T15:46:32;99270.84;;;26.53
28803;BMP280;15949;55.656;37.422;2023-07-08T15:51:38;99272.59;;;26.05
28803;BMP280;15949;55.656;37.422;2023-07-08T15:56:45;99271.69;;;25.99
28803;BMP280;15949;55.656;37.422;2023-07-08T16:01:51;99273.47;;;25.17
28803;BMP280;15949;55.656;37.422;2023-07-08T16:06:57;99265.94;;;24.33
28803;BMP280;15949;55.656;37.422;2023-07-08T16:12:04;99263.94;;;23.68
28803;BMP280;15949;55.656;37.422;2023-07-08T16:17:10;99265.56;;;23.16
28803;BMP280;15949;55.656;37.422;2023-07-08T16:22:16;99252.00;;;22.72
28803;BMP280;15949;55.656;37.422;2023-07-08T16:27:21;99266.38;;;22.46
28803;BMP280;15949;55.656;37.422;2023-07-08T16:32:27;99257.34;;;22.15
28803;BMP280;15949;55.656;37.422;2023-07-08T16:37:33;99254.38;;;21.81
28803;BMP280;15949;55.656;37.422;2023-07-08T16:42:39;99251.22;;;21.54
28803;BMP280;15949;55.656;37.422;2023-07-08T16:47:45;99253.66;;;21.29
28803;BMP280;15949;55.656;37.422;2023-07-08T16:52:51;99260.69;;;21.03
28803;BMP280;15949;55.656;37.422;2023-07-08T16:57:57;99267.31;;;20.72
28803;BMP280;15949;55.656;37.422;2023-07-08T17:03:03;99278.31;;;20.51
28803;BMP280;15949;55.656;37.422;2023-07-08T17:08:15;99280.69;;;20.22
28803;BMP280;15949;55.656;37.422;2023-07-08T17:13:21;99285.19;;;20.02
28803;BMP280;15949;55.656;37.422;2023-07-08T17:18:27;99282.31;;;19.93
28803;BMP280;15949;55.656;37.422;2023-07-08T17:23:33;99288.47;;;19.83
28803;BMP280;15949;55.656;37.422;2023-07-08T17:28:41;99292.41;;;19.71
28803;BMP280;15949;55.656;37.422;2023-07-08T17:33:51;99285.88;;;19.53
28803;BMP280;15949;55.656;37.422;2023-07-08T17:38:58;99289.03;;;19.41
28803;BMP280;15949;55.656;37.422;2023-07-08T17:44:04;99284.56;;;19.38
28803;BMP280;15949;55.656;37.422;2023-07-08T17:49:12;99284.78;;;19.20
28803;BMP280;15949;55.656;37.422;2023-07-08T17:54:18;99295.75;;;18.85
28803;BMP280;15949;55.656;37.422;2023-07-08T17:59:23;99296.22;;;18.69
28803;BMP280;15949;55.656;37.422;2023-07-08T18:04:31;99302.81;;;18.50
28803;BMP280;15949;55.656;37.422;2023-07-08T18:09:36;99289.09;;;18.22
28803;BMP280;15949;55.656;37.422;2023-07-08T18:14:44;99295.97;;;18.09
28803;BMP280;15949;55.656;37.422;2023-07-08T18:19:50;99299.84;;;17.94
28803;BMP280;15949;55.656;37.422;2023-07-08T18:24:56;99285.25;;;17.75
28803;BMP280;15949;55.656;37.422;2023-07-08T18:30:01;99274.81;;;17.50
28803;BMP280;15949;55.656;37.422;2023-07-08T18:35:28;99268.53;;;17.23
28803;BMP280;15949;55.656;37.422;2023-07-08T18:40:34;99268.94;;;17.11
28803;BMP280;15949;55.656;37.422;2023-07-08T18:45:48;99258.06;;;16.95
28803;BMP280;15949;55.656;37.422;2023-07-08T18:50:55;99261.84;;;16.80
28803;BMP280;15949;55.656;37.422;2023-07-08T18:56:02;99255.88;;;16.48
28803;BMP280;15949;55.656;37.422;2023-07-08T19:01:20;99256.97;;;16.22
28803;BMP280;15949;55.656;37.422;2023-07-08T19:06:27;99260.38;;;16.12
28803;BMP280;15949;55.656;37.422;2023-07-08T19:11:33;99264.47;;;15.95
28803;BMP280;15949;55.656;37.422;2023-07-08T19:16:40;99265.19;;;15.85
28803;BMP280;15949;55.656;37.422;2023-07-08T19:21:46;99265.88;;;15.68
28803;BMP280;15949;55.656;37.422;2023-07-08T19:26:52;99266.28;;;15.77
28803;BMP280;15949;55.656;37.422;2023-07-08T19:31:58;99266.22;;;15.63
28803;BMP280;15949;55.656;37.422;2023-07-08T19:37:03;99268.47;;;15.61
28803;BMP280;15949;55.656;37.422;2023-07-08T19:42:14;99271.88;;;15.58
28803;BMP280;15949;55.656;37.422;2023-07-08T19:47:20;99271.03;;;15.43
28803;BMP280;15949;55.656;37.422;2023-07-08T19:52:26;99279.25;;;15.35
28803;BMP280;15949;55.656;37.422;2023-07-08T19:57:39;99269.44;;;15.32
28803;BMP280;15949;55.656;37.422;2023-07-08T20:02:45;99272.06;;;15.32
28803;BMP280;15949;55.656;37.422;2023-07-08T20:08:00;99264.19;;;15.25
28803;BMP280;15949;55.656;37.422;2023-07-08T20:13:09;99255.19;;;15.22
28803;BMP280;15949;55.656;37.422;2023-07-08T20:18:19;99250.28;;;15.21
28803;BMP280;15949;55.656;37.422;2023-07-08T20:23:28;99255.13;;;15.12
28803;BMP280;15949;55.656;37.422;2023-07-08T20:28:33;99251.34;;;15.09
28803;BMP280;15949;55.656;37.422;2023-07-08T20:33:39;99252.41;;;15.01
28803;BMP280;15949;55.656;37.422;2023-07-08T20:38:44;99245.22;;;14.88
28803;BMP280;15949;55.656;37.422;2023-07-08T20:43:50;99242.88;;;14.75
28803;BMP280;15949;55.656;37.422;2023-07-08T20:48:57;99246.25;;;14.72
28803;BMP280;15949;55.656;37.422;2023-07-08T20:54:07;99245.03;;;14.63
28803;BMP280;15949;55.656;37.422;2023-07-08T20:59:17;99244.94;;;14.56
28803;BMP280;15949;55.656;37.422;2023-07-08T21:04:23;99242.31;;;14.52
28803;BMP280;15949;55.656;37.422;2023-07-08T21:09:29;99241.53;;;14.48
28803;BMP280;15949;55.656;37.422;2023-07-08T21:14:39;99236.59;;;14.40
28803;BMP280;15949;55.656;37.422;2023-07-08T21:19:45;99226.84;;;14.37
28803;BMP280;15949;55.656;37.422;2023-07-08T21:24:50;99232.84;;;14.37
28803;BMP280;15949;55.656;37.422;2023-07-08T21:29:56;99227.94;;;14.36
28803;BMP280;15949;55.656;37.422;2023-07-08T21:35:02;99224.88;;;14.27
28803;BMP280;15949;55.656;37.422;2023-07-08T21:40:28;99234.56;;;14.19
28803;BMP280;15949;55.656;37.422;2023-07-08T21:45:37;99237.09;;;14.12
28803;BMP280;15949;55.656;37.422;2023-07-08T21:50:49;99240.03;;;14.07
28803;BMP280;15949;55.656;37.422;2023-07-08T21:55:56;99230.94;;;13.97
28803;BMP280;15949;55.656;37.422;2023-07-08T22:01:02;99235.34;;;13.90
28803;BMP280;15949;55.656;37.422;2023-07-08T22:06:07;99236.41;;;13.85
28803;BMP280;15949;55.656;37.422;2023-07-08T22:11:16;99232.56;;;13.76
28803;BMP280;15949;55.656;37.422;2023-07-08T22:16:22;99231.69;;;13.65
28803;BMP280;15949;55.656;37.422;2023-07-08T22:21:30;99223.75;;;13.58
28803;BMP280;15949;55.656;37.422;2023-07-08T22:26:39;99233.41;;;13.50
28803;BMP280;15949;55.656;37.422;2023-07-08T22:31:50;99231.41;;;13.43
28803;BMP280;15949;55.656;37.422;2023-07-08T22:36:56;99224.25;;;13.37
28803;BMP280;15949;55.656;37.422;2023-07-08T22:42:02;99227.16;;;13.32
28803;BMP280;15949;55.656;37.422;2023-07-08T22:47:11;99231.56;;;13.24
28803;BMP280;15949;55.656;37.422;2023-07-08T22:52:29;99232.97;;;13.18
28803;BMP280;15949;55.656;37.422;2023-07-08T22:57:36;99226.94;;;13.14
28803;BMP280;15949;55.656;37.422;2023-07-08T23:02:41;99231.75;;;13.12
28803;BMP280;15949;55.656;37.422;2023-07-08T23:07:47;99235.50;;;13.11
28803;BMP280;15949;55.656;37.422;2023-07-08T23:12:53;99232.78;;;13.04
28803;BMP280;15949;55.656;37.422;2023-07-08T23:17:58;99236.41;;;13.00
28803;BMP280;15949;55.656;37.422;2023-07-08T23:23:04;99241.63;;;12.96
28803;BMP280;15949;55.656;37.422;2023-07-08T23:28:13;99241.53;;;12.89
28803;BMP280;15949;55.656;37.422;2023-07-08T23:33:19;99244.13;;;12.89
28803;BMP280;15949;55.656;37.422;2023-07-08T23:38:25;99234.72;;;12.85
28803;BMP280;15949;55.656;37.422;2023-07-08T23:43:31;99229.44;;;12.81
28803;BMP280;15949;55.656;37.422;2023-07-08T23:48:36;99229.34;;;12.77
28803;BMP280;15949;55.656;37.422;2023-07-08T23:53:43;99228.91;;;12.72
28803;BMP280;15949;55.656;37.422;2023-07-08T23:58:49;99229.22;;;12.67
